Time;durP1;ratioP1;P1;durP2;ratioP2;P2;SDS_P1;SDS_P2;PMS_P1;PMS_P2;Temp;Humidity;BMP_temperature;BMP_pressure;BME280_temperature;BME280_humidity;BME280_pressure;Samples;Min_cycle;Max_cycle;Signal;HPM_P1;HPM_P2
2021/07/13 00:00:17;;;;;;;7.95;7.15;;;20.50;74.70;;;;;;5038366;28;20067;-95
2021/07/13 00:02:42;;;;;;;7.57;6.60;;;20.40;74.60;;;;;;5052604;28;20036;-95
2021/07/13 00:05:12;;;;;;;7.38;6.68;;;20.50;74.70;;;;;;5026912;28;20029;-94
2021/07/13 00:07:38;;;;;;;6.93;6.32;;;20.40;74.80;;;;;;5042266;28;20017;-95
2021/07/13 00:10:06;;;;;;;7.55;6.85;;;20.40;74.70;;;;;;5035955;28;20109;-96
2021/07/13 00:12:32;;;;;;;8.07;7.28;;;20.40;74.70;;;;;;5048085;28;20210;-94
2021/07/13 00:14:58;;;;;;;7.72;7.00;;;20.40;74.80;;;;;;5050238;28;20041;-93
2021/07/13 00:17:24;;;;;;;8.20;7.40;;;20.40;74.90;;;;;;5056162;28;20067;-95
2021/07/13 00:19:49;;;;;;;7.88;7.18;;;20.40;75.00;;;;;;5039104;28;20072;-95
2021/07/13 00:22:18;;;;;;;8.32;7.40;;;20.30;75.00;;;;;;5052503;28;20086;-94
2021/07/13 00:24:43;;;;;;;9.18;8.27;;;20.30;75.10;;;;;;5039355;28;20087;-95
2021/07/13 00:27:09;;;;;;;7.75;7.05;;;20.30;75.20;;;;;;5049065;28;20013;-93
2021/07/13 00:29:34;;;;;;;7.80;7.10;;;20.30;75.30;;;;;;5031909;28;20533;-94
2021/07/13 00:32:00;;;;;;;8.60;7.80;;;20.20;75.30;;;;;;5033091;28;20029;-92
2021/07/13 00:34:28;;;;;;;8.65;7.85;;;20.20;75.40;;;;;;5033113;28;20032;-95
2021/07/13 00:36:54;;;;;;;8.50;7.70;;;20.20;75.60;;;;;;5033099;28;20036;-95
2021/07/13 00:39:19;;;;;;;9.57;8.68;;;20.10;75.70;;;;;;5026249;28;20018;-95
2021/07/13 00:41:45;;;;;;;8.65;7.75;;;20.10;75.80;;;;;;5012814;28;20049;-94
2021/07/13 00:44:11;;;;;;;9.63;8.73;;;20.00;75.80;;;;;;5013335;28;20484;-96
2021/07/13 00:46:47;;;;;;;7.53;6.82;;;20.10;75.80;;;;;;5016482;28;20030;-93
2021/07/13 00:49:15;;;;;;;8.75;7.95;;;20.10;75.80;;;;;;5020020;28;20026;-96
2021/07/13 00:51:42;;;;;;;9.55;8.65;;;20.10;75.80;;;;;;5018882;28;20420;-96
2021/07/13 00:54:12;;;;;;;7.38;6.68;;;20.10;75.90;;;;;;5020179;28;20026;-96
2021/07/13 00:56:40;;;;;;;8.70;7.90;;;20.00;75.80;;;;;;5019005;28;20021;-94
2021/07/13 00:59:06;;;;;;;6.03;5.43;;;20.00;75.90;;;;;;5019969;28;20026;-94
2021/07/13 01:01:33;;;;;;;7.78;6.97;;;20.00;75.80;;;;;;5019059;28;20020;-94
2021/07/13 01:04:01;;;;;;;7.43;6.72;;;20.10;75.80;;;;;;5019653;28;20025;-93
2021/07/13 01:06:39;;;;;;;7.95;7.15;;;20.10;75.80;;;;;;5019579;28;20056;-94
2021/07/13 01:09:10;;;;;;;8.05;7.30;;;20.10;76.50;;;;;;5026571;28;20081;-92
2021/07/13 01:11:47;;;;;;;7.60;6.88;;;20.10;75.90;;;;;;5039122;28;20026;-93
2021/07/13 01:14:31;;;;;;;7.53;6.43;;;20.20;75.80;;;;;;5038475;28;20025;-94
2021/07/13 01:17:03;;;;;;;6.82;6.13;;;20.20;75.90;;;;;;5038141;28;20022;-94
2021/07/13 01:19:51;;;;;;;6.60;6.00;;;20.20;76.00;;;;;;5038305;28;20025;-94
2021/07/13 01:22:25;;;;;;;6.30;5.72;;;20.20;76.00;;;;;;5038861;28;20464;-95
2021/07/13 01:24:54;;;;;;;7.38;6.68;;;20.30;76.00;;;;;;5039143;28;20033;-95
2021/07/13 01:27:27;;;;;;;6.78;6.10;;;20.30;75.90;;;;;;5039516;28;20104;-94
2021/07/13 01:29:56;;;;;;;8.35;7.55;;;20.30;75.80;;;;;;5037621;28;20033;-96
2021/07/13 01:32:23;;;;;;;8.73;7.82;;;20.30;75.80;;;;;;5044348;28;20025;-94
2021/07/13 01:34:55;;;;;;;7.88;7.13;;;20.30;76.00;;;;;;5035702;28;20109;-94
2021/07/13 01:37:24;;;;;;;7.93;7.20;;;20.30;76.10;;;;;;5043615;28;20572;-93
2021/07/13 01:39:52;;;;;;;6.95;6.25;;;20.20;76.10;;;;;;5055163;28;20096;-95
2021/07/13 01:42:19;;;;;;;7.43;6.72;;;20.30;76.10;;;;;;5032663;28;20052;-94
2021/07/13 01:44:48;;;;;;;8.68;7.57;;;20.30;76.70;;;;;;5029967;28;20030;-94
2021/07/13 01:47:14;;;;;;;9.02;8.13;;;20.20;76.10;;;;;;5028466;28;20048;-94
2021/07/13 01:49:41;;;;;;;9.05;8.15;;;20.20;76.20;;;;;;5055975;28;20025;-94
2021/07/13 01:52:09;;;;;;;8.77;7.88;;;20.20;76.30;;;;;;5051189;28;20021;-94
2021/07/13 01:54:36;;;;;;;9.95;9.00;;;20.20;76.50;;;;;;5047461;28;20076;-93
2021/07/13 01:57:02;;;;;;;9.40;8.50;;;20.10;76.60;;;;;;5035743;28;20021;-95
2021/07/13 01:59:29;;;;;;;8.30;7.50;;;20.10;76.70;;;;;;5049362;28;20137;-95
2021/07/13 02:01:58;;;;;;;9.07;8.18;;;20.10;76.80;;;;;;5055943;28;20029;-96
2021/07/13 02:04:32;;;;;;;8.45;7.65;;;20.10;77.00;;;;;;5060556;28;20027;-96
2021/07/13 02:07:03;;;;;;;8.25;7.45;;;20.00;76.90;;;;;;5057106;28;20025;-95
2021/07/13 02:09:30;;;;;;;9.85;8.88;;;20.00;77.00;;;;;;5056425;28;20045;-94
2021/07/13 02:11:56;;;;;;;8.73;7.82;;;20.00;77.10;;;;;;5054736;28;20634;-96
2021/07/13 02:14:22;;;;;;;8.02;7.22;;;20.10;77.20;;;;;;5044497;28;20220;-96
2021/07/13 02:16:49;;;;;;;8.32;7.50;;;20.10;77.10;;;;;;5022930;28;20536;-96
2021/07/13 02:19:15;;;;;;;7.38;6.68;;;20.20;77.00;;;;;;5048764;28;20467;-96
2021/07/13 02:21:40;;;;;;;7.57;6.88;;;20.20;76.90;;;;;;5020371;28;20024;-96
2021/07/13 02:24:06;;;;;;;8.85;7.97;;;20.20;76.80;;;;;;5034010;28;20041;-94
2021/07/13 02:26:42;;;;;;;8.95;8.05;;;20.20;76.80;;;;;;5035332;28;20033;-94
2021/07/13 02:29:27;;;;;;;8.77;7.88;;;20.20;77.00;;;;;;5049762;28;20021;-96
2021/07/13 02:32:20;;;;;;;8.65;7.72;;;20.20;77.00;;;;;;5018119;28;20021;-96
2021/07/13 02:34:48;;;;;;;8.25;7.03;;;20.20;77.00;;;;;;5047740;28;20112;-95
2021/07/13 02:37:17;;;;;;;8.00;7.20;;;20.20;77.00;;;;;;5023508;28;20457;-96
2021/07/13 02:39:44;;;;;;;7.70;6.93;;;20.30;77.00;;;;;;5039660;28;20025;-96
2021/07/13 02:42:11;;;;;;;7.15;6.45;;;20.30;76.90;;;;;;5028548;28;20025;-96
2021/07/13 02:44:38;;;;;;;6.75;6.07;;;20.30;76.80;;;;;;5050853;28;20033;-96
2021/07/13 02:47:06;;;;;;;7.85;7.05;;;20.30;76.70;;;;;;5055694;28;20041;-96
2021/07/13 02:49:33;;;;;;;7.43;6.72;;;20.30;76.70;;;;;;5034913;28;20030;-96
2021/07/13 02:52:01;;;;;;;8.82;7.93;;;20.30;76.60;;;;;;5015803;28;20026;-96
2021/07/13 02:54:29;;;;;;;8.00;7.20;;;20.40;76.70;;;;;;5026504;28;20052;-96
2021/07/13 02:56:58;;;;;;;7.68;6.88;;;20.40;76.60;;;;;;5034436;28;20113;-95
2021/07/13 02:59:25;;;;;;;7.30;6.60;;;20.40;76.60;;;;;;5029717;28;20024;-96
2021/07/13 03:01:52;;;;;;;7.35;6.65;;;20.40;76.60;;;;;;5014370;28;20325;-95
2021/07/13 03:04:19;;;;;;;7.15;6.45;;;20.40;76.50;;;;;;5014609;28;20636;-96
2021/07/13 03:06:45;;;;;;;7.70;6.90;;;20.40;76.50;;;;;;5014247;28;20412;-96
2021/07/13 03:09:12;;;;;;;7.70;6.90;;;20.40;76.50;;;;;;5013610;28;20045;-95
2021/07/13 03:11:43;;;;;;;9.88;8.73;;;20.40;76.60;;;;;;5017546;28;20026;-96
2021/07/13 03:14:12;;;;;;;8.82;7.88;;;20.40;76.70;;;;;;5026635;28;20041;-96
2021/07/13 03:16:38;;;;;;;9.27;8.27;;;20.40;76.80;;;;;;5022318;28;20026;-95
2021/07/13 03:19:05;;;;;;;10.95;9.13;;;20.40;77.00;;;;;;5022528;28;20018;-96
2021/07/13 03:21:35;;;;;;;9.95;8.63;;;20.40;77.10;;;;;;5027818;28;20025;-96
2021/07/13 03:24:06;;;;;;;10.80;9.60;;;20.40;77.20;;;;;;5026661;28;20025;-96
2021/07/13 03:26:38;;;;;;;9.88;8.77;;;20.40;77.40;;;;;;5018557;28;20033;-96
2021/07/13 03:29:06;;;;;;;10.18;9.07;;;20.50;77.40;;;;;;5017062;28;20042;-96
2021/07/13 03:31:38;;;;;;;10.00;8.98;;;20.50;77.30;;;;;;5039232;28;20097;-96
2021/07/13 03:34:05;;;;;;;11.65;10.45;;;20.50;77.40;;;;;;5038114;28;20045;-96
2021/07/13 03:36:36;;;;;;;10.52;9.43;;;20.50;77.60;;;;;;5054338;28;20074;-95
2021/07/13 04:02:20;;;;;;;10.45;9.35;;;20.60;78.30;;;;;;5116672;22;20084;-95
2021/07/13 04:04:46;;;;;;;11.07;9.88;;;20.50;78.40;;;;;;4998770;28;20018;-96
2021/07/13 04:07:12;;;;;;;12.40;11.10;;;20.50;78.40;;;;;;4999681;28;20081;-96
2021/07/13 04:09:37;;;;;;;11.50;10.30;;;20.50;78.50;;;;;;5001174;28;20026;-96
2021/07/13 04:12:04;;;;;;;11.75;10.50;;;20.40;78.60;;;;;;4996117;28;20037;-96
2021/07/13 04:14:29;;;;;;;12.00;10.73;;;20.40;78.80;;;;;;4994489;28;20022;-96
2021/07/13 04:17:30;;;;;;;10.73;9.63;;;20.30;78.90;;;;;;4998561;28;20041;-96
2021/07/13 04:20:04;;;;;;;10.55;9.45;;;20.30;79.10;;;;;;5013503;28;20030;-96
2021/07/13 04:38:03;;;;;;;13.52;11.27;;;20.20;79.10;;;;;;5002285;28;20051;-96
2021/07/13 04:40:29;;;;;;;14.65;12.65;;;20.20;79.20;;;;;;4995756;28;20025;-96
2021/07/13 04:42:55;;;;;;;13.55;11.35;;;20.10;79.10;;;;;;4998666;28;20019;-95
2021/07/13 04:45:23;;;;;;;12.57;10.15;;;20.10;79.30;;;;;;5007901;28;20389;-95
2021/07/13 04:47:49;;;;;;;10.68;8.75;;;20.10;79.40;;;;;;5003310;28;20014;-96
2021/07/13 04:50:15;;;;;;;12.68;10.85;;;20.10;79.40;;;;;;5002574;28;20096;-96
2021/07/13 04:52:40;;;;;;;9.43;8.43;;;20.00;79.30;;;;;;4995696;28;20015;-96
2021/07/13 04:55:07;;;;;;;11.20;9.68;;;20.00;79.30;;;;;;4995581;28;20022;-96
2021/07/13 04:57:45;;;;;;;13.38;11.60;;;20.00;79.30;;;;;;5001205;28;20142;-97
2021/07/13 05:00:13;;;;;;;13.20;10.10;;;20.00;79.30;;;;;;5009148;28;20036;-96
2021/07/13 05:15:39;;;;;;;11.43;10.23;;;19.80;79.80;;;;;;5924780;23;20041;-96
2021/07/13 05:18:10;;;;;;;11.75;10.48;;;19.90;79.90;;;;;;5026876;28;20096;-96
2021/07/13 05:20:36;;;;;;;10.57;9.43;;;19.80;79.90;;;;;;5341216;23;20109;-96
2021/07/13 05:23:06;;;;;;;11.45;10.23;;;19.80;79.90;;;;;;5036579;28;20780;-96
2021/07/13 05:41:31;;;;;;;16.90;12.90;;;19.70;80.20;;;;;;5471271;22;20053;-95
2021/07/13 05:43:57;;;;;;;13.32;9.40;;;19.70;80.30;;;;;;5037662;28;20025;-96
2021/07/13 05:46:23;;;;;;;23.33;13.52;;;19.80;80.40;;;;;;5020814;28;20029;-96
2021/07/13 05:48:49;;;;;;;18.08;12.38;;;19.80;80.40;;;;;;5012307;28;20038;-96
2021/07/13 05:51:15;;;;;;;19.83;12.95;;;19.80;80.40;;;;;;4999840;28;20030;-96
2021/07/13 05:53:41;;;;;;;30.80;13.30;;;19.80;80.50;;;;;;4996880;28;20563;-96
2021/07/13 06:01:22;;;;;;;16.65;12.77;;;19.90;80.60;;;;;;5731125;22;20042;-96
2021/07/13 06:03:48;;;;;;;22.13;15.10;;;19.90;80.70;;;;;;5025854;28;20038;-96
2021/07/13 06:06:14;;;;;;;21.75;14.77;;;19.90;80.80;;;;;;5025579;28;20223;-96
2021/07/13 06:08:40;;;;;;;20.13;12.23;;;19.90;81.00;;;;;;5023728;28;20014;-96
2021/07/13 06:11:06;;;;;;;17.45;13.27;;;19.90;81.10;;;;;;5028333;28;20033;-96
2021/07/13 06:13:32;;;;;;;15.80;11.55;;;19.90;81.20;;;;;;5036258;28;20026;-96
2021/07/13 06:16:00;;;;;;;19.83;12.60;;;19.90;81.20;;;;;;5037456;28;20021;-96
2021/07/13 06:18:26;;;;;;;18.77;13.57;;;19.90;81.20;;;;;;5033046;28;20034;-96
2021/07/13 06:34:11;;;;;;;22.77;14.98;;;20.20;81.10;;;;;;5390764;23;20059;-92
2021/07/13 06:36:37;;;;;;;20.05;13.98;;;20.30;81.20;;;;;;5012923;28;20022;-93
2021/07/13 06:39:04;;;;;;;20.40;14.80;;;20.30;81.20;;;;;;5008294;28;20022;-92
2021/07/13 06:41:29;;;;;;;17.33;12.75;;;20.40;81.20;;;;;;5022245;28;20081;-91
2021/07/13 06:43:55;;;;;;;17.73;12.82;;;20.40;81.10;;;;;;5010486;28;20054;-91
2021/07/13 06:46:20;;;;;;;17.05;12.27;;;20.40;81.00;;;;;;5001035;28;20023;-87
2021/07/13 06:48:46;;;;;;;18.50;13.57;;;20.50;81.10;;;;;;5001683;28;20022;-92
2021/07/13 06:51:12;;;;;;;17.90;13.70;;;20.50;81.60;;;;;;4999289;28;20052;-91
2021/07/13 06:53:38;;;;;;;17.48;12.85;;;20.50;81.00;;;;;;5001793;28;20058;-92
2021/07/13 06:56:04;;;;;;;15.55;10.93;;;20.60;81.00;;;;;;4999242;28;20023;-88
2021/07/13 06:58:30;;;;;;;16.42;12.98;;;20.60;80.80;;;;;;5000741;28;20113;-87
2021/07/13 07:00:56;;;;;;;15.05;12.05;;;20.70;80.80;;;;;;5001717;28;20057;-95
2021/07/13 07:03:21;;;;;;;15.82;12.63;;;20.70;80.70;;;;;;5002140;28;20026;-95
2021/07/13 07:05:47;;;;;;;15.10;12.02;;;20.80;80.70;;;;;;5001805;28;20062;-92
2021/07/13 07:08:12;;;;;;;16.55;12.07;;;20.80;80.60;;;;;;5002420;28;20114;-94
2021/07/13 07:10:38;;;;;;;15.50;12.70;;;20.80;80.60;;;;;;5008191;28;20030;-92
2021/07/13 07:13:04;;;;;;;18.02;13.73;;;20.90;80.60;;;;;;5011435;28;20029;-94
2021/07/13 07:15:29;;;;;;;15.45;12.38;;;20.90;80.60;;;;;;5011413;28;20030;-92
2021/07/13 07:17:55;;;;;;;15.50;12.50;;;20.80;80.60;;;;;;5021910;28;20015;-92
2021/07/13 07:20:26;;;;;;;15.70;11.82;;;20.90;80.70;;;;;;5015278;28;20366;-94
2021/07/13 07:22:53;;;;;;;15.70;12.17;;;20.90;80.70;;;;;;5011867;28;20527;-93
2021/07/13 07:25:30;;;;;;;17.17;13.10;;;20.90;80.70;;;;;;4995415;28;20382;-92
2021/07/13 07:27:57;;;;;;;19.80;15.07;;;20.90;80.80;;;;;;4999613;28;20041;-92
2021/07/13 07:30:28;;;;;;;17.02;13.02;;;20.90;80.80;;;;;;5016038;28;20022;-92
2021/07/13 07:32:58;;;;;;;15.85;12.40;;;20.90;80.90;;;;;;5001060;28;20018;-93
2021/07/13 07:35:28;;;;;;;17.00;12.48;;;20.90;81.00;;;;;;5000500;28;20064;-93
2021/07/13 07:37:54;;;;;;;15.85;12.55;;;20.90;81.00;;;;;;4999339;28;20045;-92
2021/07/13 07:40:23;;;;;;;16.58;12.90;;;20.90;81.00;;;;;;5000917;28;20015;-93
2021/07/13 07:42:51;;;;;;;16.55;13.00;;;21.00;81.20;;;;;;5000229;28;20034;-93
2021/07/13 07:45:18;;;;;;;15.63;11.98;;;21.00;81.20;;;;;;5007033;28;20030;-94
2021/07/13 07:47:43;;;;;;;15.88;11.75;;;20.90;81.30;;;;;;5004428;28;20029;-94
2021/07/13 07:55:23;;;;;;;12.95;10.30;;;21.00;81.40;;;;;;5136979;23;20058;-96
2021/07/13 07:57:49;;;;;;;12.25;9.07;;;21.00;81.30;;;;;;5034964;23;20137;-91
2021/07/13 08:00:17;;;;;;;12.35;9.80;;;21.10;81.30;;;;;;5018551;28;20049;-91
2021/07/13 08:02:43;;;;;;;13.10;10.15;;;21.10;81.20;;;;;;5017939;28;20018;-91
2021/07/13 08:05:09;;;;;;;12.93;10.50;;;21.10;81.30;;;;;;5009320;28;20501;-91
2021/07/13 08:07:36;;;;;;;15.35;11.88;;;21.10;81.50;;;;;;5005014;28;20021;-93
2021/07/13 08:10:03;;;;;;;17.02;13.90;;;21.00;81.90;;;;;;4999330;28;20048;-93
2021/07/13 08:12:29;;;;;;;16.67;13.20;;;21.00;82.30;;;;;;5004821;28;20029;-92
2021/07/13 08:14:54;;;;;;;12.88;10.55;;;20.90;82.90;;;;;;5014181;28;20014;-92
2021/07/13 08:17:20;;;;;;;13.10;10.55;;;20.90;82.80;;;;;;4999584;28;20024;-93
2021/07/13 08:19:46;;;;;;;10.35;8.52;;;21.00;82.80;;;;;;4998165;28;20026;-93
2021/07/13 08:22:12;;;;;;;11.85;8.77;;;21.00;82.60;;;;;;4996326;28;20022;-93
2021/07/13 08:24:38;;;;;;;11.88;8.57;;;21.10;82.40;;;;;;5001685;28;20033;-94
2021/07/13 08:27:07;;;;;;;7.88;6.15;;;21.10;82.20;;;;;;5009952;28;20025;-94
2021/07/13 08:29:33;;;;;;;8.75;7.30;;;21.20;82.00;;;;;;4999364;28;20076;-94
2021/07/13 08:31:59;;;;;;;9.35;7.78;;;21.20;81.80;;;;;;5007571;28;20444;-94
2021/07/13 08:34:30;;;;;;;11.23;8.93;;;21.30;81.70;;;;;;4995299;28;20026;-93
2021/07/13 08:36:57;;;;;;;10.65;8.57;;;21.40;81.60;;;;;;4997062;28;20515;-93
2021/07/13 08:39:23;;;;;;;9.85;8.02;;;21.40;81.40;;;;;;5011836;28;20443;-93
2021/07/13 08:41:48;;;;;;;11.60;9.52;;;21.50;81.30;;;;;;4998559;28;20413;-92
2021/07/13 08:44:14;;;;;;;9.25;8.15;;;21.50;81.20;;;;;;4993851;28;20038;-94
2021/07/13 08:46:41;;;;;;;10.75;9.18;;;21.50;81.20;;;;;;4992970;28;20014;-94
2021/07/13 08:49:09;;;;;;;9.05;8.05;;;21.60;81.10;;;;;;5008090;28;20030;-93
2021/07/13 08:51:37;;;;;;;11.02;9.02;;;21.70;81.10;;;;;;5012473;28;20022;-90
2021/07/13 08:54:03;;;;;;;9.13;7.93;;;21.70;80.90;;;;;;5004351;28;20477;-92
2021/07/13 08:56:30;;;;;;;6.30;5.40;;;21.70;80.90;;;;;;5019342;28;20188;-94
2021/07/13 08:58:56;;;;;;;9.75;8.20;;;21.80;80.80;;;;;;5012076;28;20033;-93
2021/07/13 09:01:23;;;;;;;9.75;7.20;;;21.90;80.80;;;;;;4998751;28;20123;-93
2021/07/13 09:03:56;;;;;;;9.65;7.95;;;22.00;80.60;;;;;;5007846;28;20041;-92
2021/07/13 09:06:25;;;;;;;9.88;8.57;;;22.00;80.50;;;;;;5012208;28;20046;-93
2021/07/13 09:08:51;;;;;;;9.95;8.02;;;22.00;80.40;;;;;;5000317;28;20026;-92
2021/07/13 09:11:19;;;;;;;9.98;8.38;;;22.10;80.30;;;;;;5009933;28;20018;-92
2021/07/13 09:13:59;;;;;;;8.95;7.53;;;22.20;80.20;;;;;;5010145;28;20017;-92
2021/07/13 09:16:33;;;;;;;10.93;8.02;;;22.20;80.20;;;;;;5015846;28;20030;-91
2021/07/13 09:19:00;;;;;;;9.52;8.00;;;22.30;80.20;;;;;;5014337;28;20125;-93
2021/07/13 09:21:27;;;;;;;8.15;6.93;;;22.40;80.00;;;;;;5000305;28;20010;-93
2021/07/13 09:24:06;;;;;;;8.82;7.63;;;22.50;79.80;;;;;;5007303;28;20037;-92
2021/07/13 09:26:35;;;;;;;13.13;11.32;;;22.60;79.60;;;;;;4997942;28;20377;-92
2021/07/13 09:29:01;;;;;;;10.05;8.27;;;22.50;79.70;;;;;;5008638;28;20034;-93
2021/07/13 09:31:26;;;;;;;9.88;7.55;;;22.50;79.90;;;;;;5013639;28;20022;-93
2021/07/13 09:33:52;;;;;;;9.00;7.47;;;22.50;79.90;;;;;;5002168;28;20065;-93
2021/07/13 09:36:19;;;;;;;8.90;7.82;;;22.60;79.80;;;;;;4997186;28;20018;-92
2021/07/13 09:38:48;;;;;;;9.40;7.38;;;22.60;79.90;;;;;;5000234;28;20548;-92
2021/07/13 09:41:16;;;;;;;9.40;8.30;;;22.70;79.80;;;;;;5003869;28;20030;-92
2021/07/13 09:43:52;;;;;;;10.15;8.50;;;22.80;79.70;;;;;;5011589;28;20485;-92
2021/07/13 09:46:24;;;;;;;9.80;8.02;;;22.70;79.60;;;;;;4992131;28;20080;-93
2021/07/13 09:49:12;;;;;;;10.50;8.93;;;22.70;79.60;;;;;;5007219;28;20030;-93
2021/07/13 09:51:39;;;;;;;9.93;8.50;;;22.70;79.70;;;;;;5007668;28;20026;-91
2021/07/13 09:54:37;;;;;;;8.82;7.55;;;22.80;79.60;;;;;;5004494;28;20018;-92
2021/07/13 09:57:24;;;;;;;8.93;8.00;;;22.80;79.70;;;;;;5010898;28;20034;-92
2021/07/13 09:59:51;;;;;;;9.30;8.30;;;22.80;79.60;;;;;;5013912;28;20021;-92
2021/07/13 10:02:20;;;;;;;10.57;9.32;;;22.80;79.50;;;;;;4999164;28;20069;-91
2021/07/13 10:04:50;;;;;;;9.32;8.25;;;22.90;79.50;;;;;;4998855;28;20061;-91
2021/07/13 10:07:20;;;;;;;9.70;7.97;;;22.90;79.40;;;;;;5005433;28;20030;-91
2021/07/13 10:09:48;;;;;;;8.93;7.40;;;23.00;79.20;;;;;;5002545;28;20022;-89
2021/07/13 10:12:18;;;;;;;11.27;9.25;;;23.10;79.10;;;;;;5002744;28;20066;-91
2021/07/13 10:14:47;;;;;;;8.65;7.75;;;23.10;79.00;;;;;;4994905;28;20466;-91
2021/07/13 10:17:15;;;;;;;8.65;7.40;;;23.20;78.90;;;;;;5010416;28;20022;-91
2021/07/13 10:19:51;;;;;;;9.52;8.20;;;23.20;78.80;;;;;;4998350;28;20037;-91
2021/07/13 10:22:19;;;;;;;8.05;7.25;;;23.30;78.60;;;;;;4994863;28;20046;-91
2021/07/13 10:24:53;;;;;;;9.60;8.60;;;23.30;78.50;;;;;;5004010;28;20054;-94
2021/07/13 10:27:33;;;;;;;10.48;9.10;;;23.30;78.50;;;;;;4996016;28;20021;-93
2021/07/13 10:30:01;;;;;;;8.80;7.50;;;23.30;78.50;;;;;;5002042;28;20124;-92
2021/07/13 10:32:27;;;;;;;8.27;7.35;;;23.20;78.30;;;;;;5008098;28;20076;-94
2021/07/13 10:35:00;;;;;;;8.88;7.35;;;23.20;78.30;;;;;;5006235;28;20038;-94
2021/07/13 10:37:36;;;;;;;9.73;8.10;;;23.30;78.30;;;;;;5000823;28;20022;-94
2021/07/13 10:40:10;;;;;;;11.13;8.93;;;23.20;78.30;;;;;;4999483;28;20044;-92
2021/07/13 10:42:43;;;;;;;9.57;7.68;;;23.20;78.30;;;;;;5014393;28;20022;-92
2021/07/13 10:45:13;;;;;;;10.68;8.25;;;23.20;78.40;;;;;;5009112;28;20037;-92
2021/07/13 10:47:58;;;;;;;10.52;9.05;;;23.20;78.30;;;;;;5013512;28;20028;-93
2021/07/13 10:50:26;;;;;;;10.52;8.57;;;23.10;78.90;;;;;;5013705;28;20022;-93
2021/07/13 10:53:01;;;;;;;8.55;7.32;;;23.20;78.20;;;;;;5004655;28;20168;-92
2021/07/13 10:55:30;;;;;;;8.65;7.63;;;23.20;78.20;;;;;;5013215;28;20073;-93
2021/07/13 10:58:14;;;;;;;7.95;7.05;;;23.30;78.10;;;;;;5002559;28;20038;-93
2021/07/13 11:00:53;;;;;;;10.27;9.02;;;23.30;78.00;;;;;;4998797;28;20032;-93
2021/07/13 11:03:31;;;;;;;8.65;7.38;;;23.30;77.90;;;;;;5012088;28;20080;-93
2021/07/13 11:06:06;;;;;;;8.80;7.32;;;23.40;77.90;;;;;;5008752;28;20081;-92
2021/07/13 11:08:40;;;;;;;8.60;7.57;;;23.40;77.90;;;;;;4997535;28;20116;-92
2021/07/13 11:11:15;;;;;;;9.38;8.35;;;23.50;77.90;;;;;;5002216;28;20053;-92
2021/07/13 11:13:43;;;;;;;9.52;8.52;;;23.50;77.70;;;;;;5000589;28;20495;-91
2021/07/13 11:16:09;;;;;;;12.80;10.93;;;23.50;77.70;;;;;;4994520;28;20022;-92
2021/07/13 11:18:37;;;;;;;11.27;9.50;;;23.40;77.50;;;;;;4996992;28;20025;-92
2021/07/13 11:21:26;;;;;;;11.70;10.00;;;23.40;77.70;;;;;;5001652;28;20081;-92
2021/07/13 11:24:15;;;;;;;10.00;8.82;;;23.30;77.70;;;;;;5008561;28;20035;-92
2021/07/13 11:26:44;;;;;;;8.43;7.50;;;23.30;77.90;;;;;;5005835;28;20563;-91
2021/07/13 11:29:19;;;;;;;9.10;7.72;;;23.20;77.90;;;;;;4997050;28;20045;-92
2021/07/13 11:31:52;;;;;;;9.80;8.70;;;23.20;77.90;;;;;;4990503;28;20038;-91
2021/07/13 11:34:19;;;;;;;7.07;6.38;;;23.20;77.90;;;;;;5006340;28;20030;-93
2021/07/13 11:36:52;;;;;;;8.45;7.07;;;23.30;77.80;;;;;;5013012;28;20014;-92
2021/07/13 11:39:24;;;;;;;11.00;8.98;;;23.40;77.70;;;;;;5011442;28;20025;-92
2021/07/13 11:41:53;;;;;;;10.02;8.90;;;23.50;77.40;;;;;;5010119;28;20018;-92
2021/07/13 11:44:20;;;;;;;10.00;8.98;;;23.50;77.20;;;;;;4993393;28;20076;-92
2021/07/13 11:46:50;;;;;;;10.05;8.02;;;23.50;77.20;;;;;;5003258;28;20030;-93
2021/07/13 11:49:18;;;;;;;11.88;9.07;;;23.60;77.10;;;;;;4992602;28;20117;-92
2021/07/13 11:51:49;;;;;;;9.77;8.43;;;23.70;77.00;;;;;;5004541;28;20038;-92
2021/07/13 11:54:17;;;;;;;11.15;9.85;;;23.70;77.00;;;;;;5000065;28;20031;-92
2021/07/13 11:56:47;;;;;;;10.77;9.65;;;23.70;76.80;;;;;;4993928;28;20034;-92
2021/07/13 11:59:17;;;;;;;9.20;8.07;;;23.70;76.80;;;;;;4992445;28;20026;-92
2021/07/13 12:01:50;;;;;;;11.30;9.50;;;23.70;76.80;;;;;;4993651;28;20018;-92
2021/07/13 12:04:18;;;;;;;11.20;10.07;;;23.80;76.70;;;;;;5003238;28;20052;-93
2021/07/13 12:06:48;;;;;;;9.32;8.10;;;23.80;76.50;;;;;;5009539;28;20021;-94
2021/07/13 12:09:14;;;;;;;11.73;10.52;;;23.80;76.60;;;;;;4994006;28;20081;-92
2021/07/13 12:11:44;;;;;;;10.60;9.50;;;23.80;76.30;;;;;;5004821;28;20022;-92
2021/07/13 12:14:14;;;;;;;11.48;10.35;;;23.80;76.20;;;;;;5006931;28;20031;-92
2021/07/13 12:16:41;;;;;;;10.68;9.57;;;23.90;76.00;;;;;;4993566;28;20539;-92
2021/07/13 12:19:18;;;;;;;12.30;10.98;;;23.90;75.80;;;;;;4998655;28;20019;-93
2021/07/13 12:21:50;;;;;;;9.88;8.88;;;23.80;75.70;;;;;;4997301;28;20022;-93
2021/07/13 12:24:19;;;;;;;9.63;8.63;;;23.90;75.80;;;;;;5000320;28;20465;-91
2021/07/13 12:26:50;;;;;;;9.93;8.88;;;23.90;75.60;;;;;;4999755;28;20217;-93
2021/07/13 12:29:32;;;;;;;9.00;8.10;;;23.90;75.50;;;;;;5001325;28;20034;-92
2021/07/13 12:32:00;;;;;;;12.10;10.82;;;23.90;75.50;;;;;;4998105;28;20034;-92
2021/07/13 12:34:31;;;;;;;13.18;11.70;;;23.90;75.60;;;;;;4999053;28;20027;-92
2021/07/13 12:37:20;;;;;;;12.37;10.60;;;23.80;75.70;;;;;;5001396;28;20397;-93
2021/07/13 12:40:05;;;;;;;11.80;10.50;;;23.80;75.90;;;;;;5009814;28;20276;-92
2021/07/13 12:42:33;;;;;;;12.65;11.35;;;23.70;76.00;;;;;;4995624;28;20485;-92
2021/07/13 12:45:21;;;;;;;11.90;10.60;;;23.70;76.10;;;;;;4991689;28;20054;-92
2021/07/13 12:47:50;;;;;;;13.07;10.30;;;23.80;76.30;;;;;;4997923;28;20023;-93
2021/07/13 12:50:23;;;;;;;13.15;11.32;;;23.80;76.20;;;;;;5005694;28;20371;-92
2021/07/13 12:53:06;;;;;;;10.93;9.27;;;23.80;76.30;;;;;;5011146;28;20053;-93
2021/07/13 12:55:34;;;;;;;9.70;8.70;;;23.80;76.40;;;;;;5000820;28;20030;-93
2021/07/13 12:58:19;;;;;;;10.32;9.18;;;23.90;76.30;;;;;;4992724;28;20037;-94
2021/07/13 13:00:51;;;;;;;9.27;8.32;;;23.90;76.20;;;;;;4993269;28;20030;-96
2021/07/13 13:03:19;;;;;;;10.65;9.55;;;23.90;76.20;;;;;;4995386;28;20018;-96
2021/07/13 13:05:47;;;;;;;11.45;10.23;;;23.90;76.10;;;;;;4992947;28;20034;-95
2021/07/13 13:08:16;;;;;;;9.48;8.48;;;23.90;76.00;;;;;;4993602;28;20088;-94
2021/07/13 13:10:47;;;;;;;12.93;10.48;;;23.90;75.80;;;;;;5003651;28;20030;-96
2021/07/13 13:13:27;;;;;;;10.82;9.70;;;23.90;75.50;;;;;;4994082;28;20122;-96
2021/07/13 13:15:54;;;;;;;11.48;10.27;;;23.90;75.40;;;;;;5005682;28;20164;-94
2021/07/13 13:18:20;;;;;;;11.05;9.90;;;23.80;75.30;;;;;;5005034;28;20034;-94
2021/07/13 13:20:54;;;;;;;12.10;9.93;;;23.80;75.40;;;;;;5000532;28;20034;-96
2021/07/13 13:23:20;;;;;;;10.93;9.82;;;23.80;75.70;;;;;;4992676;28;20572;-95
2021/07/13 13:25:46;;;;;;;10.75;8.65;;;23.80;75.70;;;;;;4996516;28;20224;-96
2021/07/13 13:28:13;;;;;;;9.98;8.93;;;23.80;75.80;;;;;;5004148;28;20395;-96
2021/07/13 13:30:40;;;;;;;14.05;11.45;;;23.80;75.90;;;;;;4997190;28;20027;-95
2021/07/13 13:33:06;;;;;;;13.85;12.25;;;23.80;75.80;;;;;;5002497;28;20030;-96
2021/07/13 13:36:20;;;;;;;13.90;11.63;;;23.80;76.00;;;;;;4996615;28;20034;-96
2021/07/13 13:40:59;;;;;;;15.90;12.35;;;23.60;76.40;;;;;;4993040;28;20029;-96
2021/07/13 13:43:29;;;;;;;17.23;14.00;;;23.50;76.70;;;;;;5002835;28;20082;-96
2021/07/13 13:45:54;;;;;;;13.98;12.18;;;23.40;76.90;;;;;;5010511;28;20034;-95
2021/07/13 13:48:20;;;;;;;16.95;15.00;;;23.40;77.10;;;;;;4993453;28;20037;-94
2021/07/13 13:50:46;;;;;;;15.02;13.43;;;23.40;77.40;;;;;;5004291;28;20019;-94
2021/07/13 13:53:11;;;;;;;16.90;14.05;;;23.40;77.40;;;;;;4992608;28;20026;-94
2021/07/13 13:55:38;;;;;;;14.25;12.32;;;23.40;77.40;;;;;;4995720;28;20084;-94
2021/07/13 13:58:04;;;;;;;14.13;12.13;;;23.40;77.30;;;;;;4999699;28;20489;-94
2021/07/13 14:00:30;;;;;;;15.27;12.18;;;23.50;77.30;;;;;;4996825;28;20473;-95
2021/07/13 14:02:56;;;;;;;12.05;10.00;;;23.50;77.20;;;;;;5005045;28;20112;-95
2021/07/13 14:05:24;;;;;;;17.05;13.80;;;23.60;77.10;;;;;;4995073;28;20038;-94
2021/07/13 14:07:50;;;;;;;16.58;13.48;;;23.70;77.00;;;;;;5015563;28;20033;-94
2021/07/13 14:10:18;;;;;;;17.08;13.63;;;23.80;77.00;;;;;;5014819;28;20396;-94
2021/07/13 14:12:44;;;;;;;15.27;11.82;;;23.80;76.70;;;;;;5004702;28;20022;-94
2021/07/13 14:15:11;;;;;;;15.30;12.75;;;23.90;76.60;;;;;;4995180;28;20072;-95
2021/07/13 14:17:38;;;;;;;16.48;14.27;;;23.90;76.40;;;;;;4996349;28;20525;-95
2021/07/13 14:20:06;;;;;;;14.23;12.45;;;24.00;76.20;;;;;;4995662;28;20149;-94
2021/07/13 14:22:32;;;;;;;13.65;11.77;;;24.10;76.00;;;;;;5002901;28;20030;-94